Meath Environmental Platform

Observations for Trim Market St

Time AQI Temp °C Hum % Pres Pa CO μg/m³ H₂S μg/m³ NO μg/m³ NO₂ μg/m³ O₃ μg/m³ SO₂ μg/m³ PM1 μg/m³ PM2.5 μg/m³ PM10 μg/m³
Thursday 9 July 2026
04:09 1 16.7 74 41,247 0.02 0 0 6.71 13.35 0 2.14 3.81 6.93
04:08 1 16.8 74 41,514 0.01 0 0 1.89 15.72 0 0.71 3.82 6.33
04:07 1 16.7 74 41,697 0.03 0 0 4.72 14.1 0 2.14 3.34 5.73
04:06 1 16.7 74 41,979 0.01 0 0.39 3.02 16.9 0 0.71 2.86 5.12
04:05 1 16.8 74 42,195 0 0 0 3.2 13.68 0 2.14 4.78 7.53
04:04 1 16.8 74 42,515 0 0 0 4.21 11.93 0 1.43 3.35 5.72
04:03 1 16.8 74 42,876 0 0 0 3.31 20.52 0 1.43 2.87 5.72
04:02 1 16.8 74 43,215 0 0 0 5.32 14.22 0 0.71 2.39 4.51
04:01 1 16.8 74 43,642 0 0 0 3.14 17.7 0 2.14 3.36 5.72
04:00 1 16.8 74 44,047 0 0 0 4.95 15.21 0 1.43 3.84 6.32
03:59 1 16.8 74 44,524 0 0 0 3.06 14.86 0 1.43 3.37 6.93
03:58 1 16.8 74 44,950 0 0 0 2.16 18.53 0 1.43 2.88 6.32
03:55 1 16.8 73 45,452 0 0 1.02 5.58 12.63 0 1.43 3.38 6.32
03:48 1 17 73 47,712 0 0 1.86 1.57 12.93 0 2.14 4.36 6.92
03:47 1 17 73 47,957 0 0 0 3.77 11.28 0 2.14 3.88 6.31
03:42 1 17.1 73 49,086 0 0 0 0 17.43 0 2.85 4.37 6.92
03:40 1 17.2 73 49,265 0 0 0 1.45 12.73 0 0.71 2.93 6.92
03:39 1 17.2 73 49,407 0 0 0 2.76 13.69 0 2.14 3.41 5.7
03:37 1 17.3 72 49,770 0 0 0 2.15 14 0 2.85 3.9 6.31
03:36 1 17.3 72 49,941 0 0 0 1.65 14.45 0 0.71 3.9 6.31